Wednesday, October 17, 2018, 7:28 AM GMT
Back to Local

CWNH, Riviere Du Loup, Que.

Location: , , Canada Lat: 47.8
Local Time: 7:28 AM GMT ( 7:28 GMT) Lon: -69.55
Time Zone: GMT Elev: 485 ft

Show me the last for .
Show Coded

Time T Td Feel RH Dir Speed Gust Alt SLP Vis Weather Sky Remarks
2018-10-17 07:00 37 31 32 79 170° 6 - - 29.70 0 None
2018-10-17 06:00 37 31 34 78 160° 3 - - 29.73 0 None
2018-10-17 05:00 37 29 31 72 190° 7 - - 29.75 0 None
2018-10-17 04:00 36 28 31 72 180° 6 - - 29.77 0 None
2018-10-17 03:00 37 27 32 68 190° 6 - - 29.79 0 None
2018-10-17 02:00 38 26 34 62 210° 5 - - 29.80 0 None
2018-10-17 01:00 38 26 35 61 230° 5 - - 29.81 0 None
2018-10-17 00:00 38 24 - 56 280° 2 - - 29.81 0 None
2018-10-16 23:00 39 26 35 57 250° 6 - - 29.81 0 None
2018-10-16 22:00 39 26 35 58 260° 6 - - 29.80 0 None
2018-10-16 21:00 41 24 32 52 270° 7 18 - 29.77 0 Peak wind: 20 mph (18 kts) from 230° at 38 min
2018-10-16 20:00 42 24 38 48 260° 6 - - 29.76 0 None
2018-10-16 19:00 43 27 38 53 250° 7 - - 29.74 0 None
2018-10-16 18:00 43 26 41 49 290° 5 - - 29.74 0 Peak wind: 19 mph (17 kts) from 0° at 21 min
2018-10-16 17:00 42 25 38 51 310° 6 - - 29.73 0 None
2018-10-16 16:00 41 26 36 54 300° 7 - - 29.72 0 Peak wind: 21 mph (19 kts) from 300° at 45 min
1-hr Precip Total: 0.01"
2018-10-16 15:00 39 27 35 61 290° 6 - - 29.71 0 Peak wind: 19 mph (17 kts) from 250° at 07 min
2018-10-16 14:00 40 28 31 60 280° 6 18 - 29.67 0 Peak wind: 20 mph (18 kts) from 260° at 12 min
Pressure rising rapidly
2018-10-16 13:00 41 29 36 63 260° 7 - - 29.61 0 Peak wind: 27 mph (24 kts) from 290° at 05 min
Pressure rising rapidly
2018-10-16 12:00 41 29 32 62 300° 8 21 - 29.50 0 Peak wind: 25 mph (22 kts) from 280° at 08 min
Pressure rising rapidly
2018-10-16 11:00 41 32 32 70 250° 8 18 - 29.43 0 Peak wind: 26 mph (23 kts) from 240° at 00 min
Pressure rising rapidly
2018-10-16 10:00 40 33 30 75 230° 12 22 - 29.37 0 Peak wind: 28 mph (25 kts) from 220° at 15 min
2018-10-16 09:00 41 31 31 69 230° 10 20 - 29.35 0 Peak wind: 25 mph (22 kts) from 210° at 10 min
2018-10-16 08:00 41 31 31 67 230° 13 24 - 29.36 0 Peak wind: 24 mph (21 kts) from 260° at 49 min

Support USWX by starting your Amazon purchase here.